Bebedouro, Brazil
Current Conditions -  °F | °C
As of 8:00 AM on Monday 22 Dec 2014 (Local Time) from SBRP Reporting Station
Overcast Overcast  
Wind Chill: 75°   Ceiling: 10000
Heat Index: 75°   Visibility: 6mi
Dew Point: 70°   Wind: 7mph
Humidity: 83%   Direction: 360°N
Pressure: 29.97"   Gusts: NA
Location:  20.95°S, 48.49°W
Report Text: SBRP 221000Z 36006KT FEW045 OVC100 24/21 Q1015
Loading
Personal Weather Stations






























Interactive Weather Map New forecast layout! Learn more

10-Day Weather Forecast

Advertisements
Track Severe Weather on mobile